createdAt,value
2018-09-17T00:02:02.498Z,100529.93
2018-09-17T00:04:33.503Z,100527.30
2018-09-17T00:07:04.518Z,100527.42
2018-09-17T00:09:35.554Z,100532.37
2018-09-17T00:12:06.542Z,100529.17
2018-09-17T00:14:37.497Z,100534.93
2018-09-17T00:17:08.494Z,100536.06
2018-09-17T00:19:39.490Z,100535.77
2018-09-17T00:22:10.505Z,100530.92
2018-09-17T00:24:41.586Z,100537.40
2018-09-17T00:27:12.538Z,100537.77
2018-09-17T00:29:43.503Z,100537.20
2018-09-17T00:32:14.521Z,100537.08
2018-09-17T00:34:45.509Z,100529.59
2018-09-17T00:37:16.529Z,100533.95
2018-09-17T00:39:47.496Z,100527.25
2018-09-17T00:42:18.526Z,100526.45
2018-09-17T00:44:49.485Z,100531.82
2018-09-17T00:47:20.523Z,100533.59
2018-09-17T00:49:51.482Z,100535.11
2018-09-17T00:52:22.563Z,100531.11
2018-09-17T00:54:53.498Z,100535.65
2018-09-17T00:57:24.537Z,100535.11
2018-09-17T00:59:55.509Z,100539.47
2018-09-17T01:02:26.518Z,100536.22
2018-09-17T01:04:57.497Z,100546.17
2018-09-17T01:07:28.506Z,100542.78
2018-09-17T01:09:59.498Z,100540.97
2018-09-17T01:12:30.529Z,100539.78
2018-09-17T01:15:01.952Z,100541.93
2018-09-17T01:17:32.993Z,100541.05
2018-09-17T01:20:04.018Z,100541.57
2018-09-17T01:22:35.290Z,100539.47
2018-09-17T01:25:06.681Z,100534.43
2018-09-17T01:27:37.557Z,100532.09
2018-09-17T01:30:08.504Z,100534.12
2018-09-17T01:32:39.547Z,100535.55
2018-09-17T01:35:10.518Z,100530.61
2018-09-17T01:37:43.659Z,100529.45
2018-09-17T01:40:17.739Z,100535.00
2018-09-17T01:42:48.574Z,100539.08
2018-09-17T01:45:19.497Z,100544.16
2018-09-17T01:47:50.505Z,100551.83
2018-09-17T01:50:21.566Z,100560.59
2018-09-17T01:52:52.522Z,100569.61
2018-09-17T01:55:23.522Z,100568.95
2018-09-17T01:57:54.511Z,100565.77
2018-09-17T02:00:25.486Z,100566.06
2018-09-17T02:02:56.509Z,100569.66
2018-09-17T02:05:27.505Z,100574.12
2018-09-17T02:07:58.558Z,100564.03
2018-09-17T02:10:29.497Z,100551.14
2018-09-17T02:13:00.521Z,100555.20
2018-09-17T02:15:31.496Z,100547.14
2018-09-17T02:18:02.501Z,100549.80
2018-09-17T02:20:33.506Z,100555.42
2018-09-17T02:23:04.530Z,100550.43
2018-09-17T02:25:35.487Z,100562.41
2018-09-17T02:28:06.614Z,100562.73
2018-09-17T02:30:37.498Z,100564.34
2018-09-17T02:33:08.509Z,100564.20
2018-09-17T02:35:39.578Z,100564.13
2018-09-17T02:38:10.488Z,100564.75
2018-09-17T02:40:42.203Z,100566.09
2018-09-17T02:43:13.393Z,100559.09
2018-09-17T02:45:44.490Z,100554.97
2018-09-17T02:48:15.492Z,100563.42
2018-09-17T02:50:46.542Z,100560.98
2018-09-17T02:53:17.518Z,100558.86
2018-09-17T02:55:48.497Z,100565.61
2018-09-17T03:01:01.493Z,100566.56
2018-09-17T03:03:32.503Z,100567.26
2018-09-17T03:06:03.502Z,100567.97
2018-09-17T03:11:05.485Z,100572.70
2018-09-17T03:13:36.508Z,100568.05
2018-09-17T03:16:07.514Z,100581.87
2018-09-17T03:18:55.393Z,100575.14
2018-09-17T03:21:26.546Z,100581.09
2018-09-17T03:23:57.505Z,100576.10
2018-09-17T03:26:28.496Z,100575.77
2018-09-17T03:28:59.498Z,100580.62
2018-09-17T03:31:30.486Z,100578.98
2018-09-17T03:34:01.497Z,100577.44
2018-09-17T03:36:32.502Z,100574.19
2018-09-17T03:39:03.502Z,100568.87
2018-09-17T03:41:34.909Z,100571.53
2018-09-17T03:44:05.877Z,100579.20
2018-09-17T03:46:36.837Z,100576.26
2018-09-17T03:49:07.640Z,100586.23
2018-09-17T03:51:38.546Z,100581.34
2018-09-17T03:54:09.477Z,100578.66
2018-09-17T03:56:40.473Z,100571.09
2018-09-17T03:59:11.509Z,100568.08
2018-09-17T04:01:42.511Z,100570.83
2018-09-17T04:04:13.498Z,100575.71
2018-09-17T04:06:44.485Z,100574.20
2018-09-17T04:09:15.505Z,100572.87
2018-09-17T04:11:46.493Z,100575.14
2018-09-17T04:14:17.481Z,100579.03
2018-09-17T04:16:48.491Z,100589.32
2018-09-17T04:19:19.510Z,100591.64
2018-09-17T04:21:50.497Z,100598.98
2018-09-17T04:24:21.506Z,100603.11
2018-09-17T04:26:52.517Z,100602.35
2018-09-17T04:29:23.504Z,100598.65
2018-09-17T04:31:54.534Z,100608.00
2018-09-17T04:34:25.501Z,100605.00
2018-09-17T04:36:56.501Z,100602.76
2018-09-17T04:39:28.454Z,100607.31
2018-09-17T04:41:59.515Z,100613.19
2018-09-17T04:44:30.516Z,100616.63
2018-09-17T04:47:01.487Z,100614.66
2018-09-17T04:49:32.522Z,100610.19
2018-09-17T04:52:03.531Z,100608.86
2018-09-17T04:54:34.518Z,100604.92
2018-09-17T04:57:05.507Z,100606.92
2018-09-17T04:59:36.607Z,100616.28
2018-09-17T05:02:07.615Z,100619.09
2018-09-17T05:04:38.582Z,100621.14
2018-09-17T05:09:54.526Z,100618.02
2018-09-17T05:12:25.655Z,100618.20
2018-09-17T05:14:56.575Z,100615.36
2018-09-17T05:17:27.533Z,100613.86
2018-09-17T05:19:58.566Z,100612.73
2018-09-17T05:22:30.501Z,100610.39
2018-09-17T05:25:01.510Z,100611.66
2018-09-17T05:27:32.514Z,100619.22
2018-09-17T05:30:03.506Z,100620.38
2018-09-17T05:32:34.522Z,100617.53
2018-09-17T05:35:05.602Z,100618.20
2018-09-17T05:37:36.516Z,100630.08
2018-09-17T05:40:07.558Z,100638.17
2018-09-17T05:42:38.551Z,100636.84
2018-09-17T05:45:09.529Z,100639.84
2018-09-17T05:47:40.513Z,100633.51
2018-09-17T05:50:11.537Z,100643.42
2018-09-17T05:52:42.494Z,100639.08
2018-09-17T05:55:13.488Z,100645.44
2018-09-17T05:57:44.497Z,100644.48
2018-09-17T06:00:15.517Z,100638.72
2018-09-17T06:02:46.501Z,100636.92
2018-09-17T06:05:17.539Z,100635.70
2018-09-17T06:07:48.521Z,100644.77
2018-09-17T06:10:19.482Z,100641.54
2018-09-17T06:12:53.521Z,100639.81
2018-09-17T06:15:24.497Z,100639.57
2018-09-17T06:17:55.517Z,100644.84
2018-09-17T06:20:26.521Z,100640.02
2018-09-17T06:22:57.487Z,100652.35
2018-09-17T06:25:28.521Z,100649.03
2018-09-17T06:27:59.510Z,100655.35
2018-09-17T06:30:30.501Z,100661.52
2018-09-17T06:33:01.490Z,100660.55
2018-09-17T06:35:32.481Z,100664.77
2018-09-17T06:38:03.566Z,100655.88
2018-09-17T06:40:34.485Z,100664.60
2018-09-17T06:43:05.527Z,100663.52
2018-09-17T06:45:36.493Z,100659.59
2018-09-17T06:48:07.518Z,100654.45
2018-09-17T06:50:38.525Z,100654.94
2018-09-17T06:53:09.514Z,100659.89
2018-09-17T06:55:40.496Z,100665.59
2018-09-17T06:58:11.562Z,100665.20
2018-09-17T07:00:42.486Z,100656.92
2018-09-17T07:03:13.477Z,100655.81
2018-09-17T07:05:44.506Z,100656.33
2018-09-17T07:08:15.501Z,100657.16
2018-09-17T07:10:46.487Z,100646.40
2018-09-17T07:13:17.469Z,100637.80
2018-09-17T07:15:48.714Z,100639.77
2018-09-17T07:18:19.561Z,100635.97
2018-09-17T07:20:50.517Z,100633.21
2018-09-17T07:23:21.469Z,100631.50
2018-09-17T07:25:52.505Z,100635.02
2018-09-17T07:28:23.776Z,100633.69
2018-09-17T07:30:54.617Z,100641.11
2018-09-17T07:33:25.516Z,100646.45
2018-09-17T07:35:56.525Z,100654.53
2018-09-17T07:38:27.572Z,100654.19
2018-09-17T07:40:58.527Z,100652.06
2018-09-17T07:43:29.507Z,100649.80
2018-09-17T07:46:00.523Z,100650.73
2018-09-17T07:48:31.501Z,100648.03
2018-09-17T07:51:02.515Z,100646.37
2018-09-17T07:53:33.534Z,100643.43
2018-09-17T07:56:04.509Z,100643.36
2018-09-17T07:58:35.510Z,100634.27
2018-09-17T08:01:06.501Z,100632.89
2018-09-17T08:03:37.501Z,100629.48
2018-09-17T08:06:08.493Z,100631.63
2018-09-17T08:08:39.497Z,100631.16
2018-09-17T08:11:10.538Z,100629.59
2018-09-17T08:13:41.489Z,100635.06
2018-09-17T08:16:12.519Z,100622.10
2018-09-17T08:18:43.517Z,100624.58
2018-09-17T08:21:14.502Z,100614.48
2018-09-17T08:23:45.574Z,100621.52
2018-09-17T08:26:16.523Z,100615.06
2018-09-17T08:28:47.777Z,100618.42
2018-09-17T08:31:18.671Z,100611.89
2018-09-17T08:33:49.552Z,100622.78
2018-09-17T08:36:20.532Z,100623.42
2018-09-17T08:38:51.498Z,100627.77
2018-09-17T08:41:22.518Z,100621.69
2018-09-17T08:43:53.563Z,100625.69
2018-09-17T08:46:24.538Z,100621.39
2018-09-17T08:48:55.491Z,100625.19
2018-09-17T08:51:26.504Z,100627.66
2018-09-17T08:53:57.494Z,100620.83
2018-09-17T08:56:33.681Z,100629.30
2018-09-17T08:59:10.360Z,100625.80
2018-09-17T09:01:46.502Z,100621.91
2018-09-17T09:04:22.704Z,100620.05
2018-09-17T09:07:15.704Z,100624.91
2018-09-17T09:09:46.575Z,100611.50
2018-09-17T09:12:22.396Z,100608.45
2018-09-17T09:14:56.509Z,100605.40
2018-09-17T09:17:27.561Z,100593.59
2018-09-17T09:19:58.595Z,100586.30
2018-09-17T09:22:29.528Z,100587.97
2018-09-17T09:25:00.502Z,100591.33
2018-09-17T09:27:31.501Z,100586.72
2018-09-17T09:30:02.534Z,100597.47
2018-09-17T09:32:33.526Z,100587.33
2018-09-17T09:35:04.560Z,100581.33
2018-09-17T09:37:35.525Z,100588.02
2018-09-17T09:40:06.506Z,100581.25
2018-09-17T09:42:37.505Z,100586.78
2018-09-17T09:45:08.519Z,100583.48
2018-09-17T09:47:39.505Z,100582.03
2018-09-17T09:50:10.505Z,100576.77
2018-09-17T09:52:41.537Z,100569.05
2018-09-17T09:55:12.523Z,100563.05
2018-09-17T09:57:43.525Z,100559.73
2018-09-17T10:00:19.522Z,100558.87
2018-09-17T10:02:55.478Z,100554.33
2018-09-17T10:05:26.506Z,100553.39
2018-09-17T10:07:57.509Z,100555.62
2018-09-17T10:10:33.687Z,100550.42
2018-09-17T10:13:09.564Z,100548.27
2018-09-17T10:15:45.690Z,100556.53
2018-09-17T10:18:21.657Z,100553.09
2018-09-17T10:20:52.543Z,100546.16
2018-09-17T10:23:23.518Z,100543.11
2018-09-17T10:25:54.513Z,100536.31
2018-09-17T10:28:25.511Z,100535.13
2018-09-17T10:30:56.509Z,100533.07
2018-09-17T10:33:27.514Z,100528.69
2018-09-17T10:35:58.505Z,100528.72
2018-09-17T10:38:36.392Z,100523.92
2018-09-17T10:41:07.566Z,100519.05
2018-09-17T10:43:38.517Z,100515.93
2018-09-17T10:46:09.520Z,100510.92
2018-09-17T10:48:40.518Z,100505.95
2018-09-17T10:51:11.565Z,100504.56
2018-09-17T10:53:42.503Z,100506.09
2018-09-17T10:56:13.506Z,100493.91
2018-09-17T10:58:44.556Z,100506.48
2018-09-17T11:01:15.514Z,100504.16
2018-09-17T11:03:46.653Z,100494.85
2018-09-17T11:06:17.649Z,100492.68
2018-09-17T11:08:48.584Z,100484.87
2018-09-17T11:11:19.669Z,100470.00
2018-09-17T11:13:50.653Z,100473.30
2018-09-17T11:16:21.549Z,100471.23
2018-09-17T11:18:52.499Z,100465.75
2018-09-17T11:21:23.468Z,100461.11
2018-09-17T11:23:54.512Z,100451.71
2018-09-17T11:26:25.518Z,100453.50
2018-09-17T11:28:56.520Z,100453.13
2018-09-17T11:31:28.083Z,100457.14
2018-09-17T11:33:59.293Z,100456.06
2018-09-17T11:36:30.382Z,100455.66
2018-09-17T11:39:01.558Z,100450.95
2018-09-17T11:41:32.574Z,100448.14
2018-09-17T11:44:03.506Z,100445.73
2018-09-17T11:46:34.476Z,100446.44
2018-09-17T11:49:05.562Z,100437.35
2018-09-17T11:51:36.510Z,100449.35
2018-09-17T11:54:07.540Z,100447.63
2018-09-17T11:56:38.549Z,100437.23
2018-09-17T11:59:09.769Z,100441.59
2018-09-17T12:01:45.679Z,100429.55
2018-09-17T12:04:20.389Z,100426.20
2018-09-17T12:08:00.365Z,100425.45
2018-09-17T12:10:31.649Z,100421.37
2018-09-17T12:13:02.588Z,100423.06
2018-09-17T12:15:33.578Z,100416.63
2018-09-17T12:18:04.513Z,100412.08
2018-09-17T12:20:35.715Z,100418.98
2018-09-17T12:23:07.194Z,100416.05
2018-09-17T12:25:38.422Z,100411.66
2018-09-17T12:28:09.686Z,100403.73
2018-09-17T12:30:40.570Z,100398.73
2018-09-17T12:33:11.516Z,100393.43
2018-09-17T12:35:42.501Z,100403.67
2018-09-17T12:38:13.489Z,100391.06
2018-09-17T12:40:44.498Z,100387.94
2018-09-17T12:43:15.537Z,100384.16
2018-09-17T12:45:46.571Z,100379.11
2018-09-17T12:48:17.505Z,100383.14
2018-09-17T12:50:48.519Z,100375.24
2018-09-17T12:53:19.556Z,100374.14
2018-09-17T12:55:50.518Z,100373.27
2018-09-17T12:58:21.504Z,100370.31
2018-09-17T13:00:52.522Z,100372.33
2018-09-17T13:03:23.536Z,100372.67
2018-09-17T13:05:55.890Z,100370.50
2018-09-17T13:08:26.965Z,100366.77
2018-09-17T13:10:58.022Z,100366.48
2018-09-17T13:13:29.297Z,100362.50
2018-09-17T13:16:00.406Z,100357.19
2018-09-17T13:18:31.545Z,100363.38
2018-09-17T13:21:02.534Z,100362.27
2018-09-17T13:23:33.573Z,100357.16
2018-09-17T13:26:04.529Z,100351.56
2018-09-17T13:28:35.536Z,100351.78
2018-09-17T13:31:06.570Z,100345.90
2018-09-17T13:33:37.530Z,100342.86
2018-09-17T13:36:08.298Z,100340.91
2018-09-17T13:38:39.365Z,100334.45
2018-09-17T13:41:10.479Z,100333.84
2018-09-17T13:43:41.512Z,100329.52
2018-09-17T13:46:12.547Z,100324.34
2018-09-17T13:48:43.508Z,100327.69
2018-09-17T13:51:14.562Z,100320.29
2018-09-17T13:53:45.520Z,100317.02
2018-09-17T13:56:16.514Z,100308.48
2018-09-17T13:58:47.505Z,100310.01
2018-09-17T14:01:18.511Z,100308.97
2018-09-17T14:03:49.960Z,100302.43
2018-09-17T14:06:21.294Z,100292.11
2018-09-17T14:08:52.449Z,100298.09
2018-09-17T14:11:23.563Z,100301.66
2018-09-17T14:13:54.513Z,100289.89
2018-09-17T14:16:30.629Z,100296.19
2018-09-17T14:19:01.593Z,100288.78
2018-09-17T14:21:32.559Z,100283.48
2018-09-17T14:24:03.535Z,100284.78
2018-09-17T14:26:34.522Z,100293.07
2018-09-17T14:29:05.660Z,100287.39
2018-09-17T14:31:41.849Z,100286.17
2018-09-17T14:34:13.031Z,100285.70
2018-09-17T14:36:44.369Z,100277.80
2018-09-17T14:39:15.396Z,100279.77
2018-09-17T14:41:46.539Z,100269.69
2018-09-17T14:44:17.528Z,100275.36
2018-09-17T14:46:48.530Z,100273.99
2018-09-17T14:49:19.527Z,100265.94
2018-09-17T14:51:50.531Z,100265.09
2018-09-17T14:54:21.584Z,100254.37
2018-09-17T14:56:52.545Z,100259.11
2018-09-17T14:59:23.550Z,100260.45
2018-09-17T15:01:54.528Z,100256.83
2018-09-17T15:04:25.646Z,100253.39
2018-09-17T15:06:56.556Z,100255.02
2018-09-17T15:09:27.586Z,100250.27
2018-09-17T15:11:58.519Z,100255.33
2018-09-17T15:14:29.651Z,100247.67
2018-09-17T15:17:00.667Z,100250.25
2018-09-17T15:19:31.606Z,100246.35
2018-09-17T15:22:02.677Z,100237.88
2018-09-17T15:24:33.638Z,100234.09
2018-09-17T15:27:04.640Z,100233.53
2018-09-17T15:29:35.536Z,100230.67
2018-09-17T15:32:06.613Z,100231.89
2018-09-17T15:34:37.648Z,100228.28
2018-09-17T15:37:08.667Z,100230.87
2018-09-17T15:39:40.412Z,100221.44
2018-09-17T15:42:11.580Z,100222.94
2018-09-17T15:44:42.526Z,100223.37
2018-09-17T15:47:13.514Z,100217.94
2018-09-17T15:49:44.545Z,100210.98
2018-09-17T15:52:15.528Z,100208.64
2018-09-17T15:54:46.531Z,100213.88
2018-09-17T15:57:17.498Z,100208.80
2018-09-17T15:59:48.480Z,100207.67
2018-09-17T16:02:19.480Z,100210.39
2018-09-17T16:04:50.512Z,100212.92
2018-09-17T16:07:21.516Z,100209.13
2018-09-17T16:09:52.495Z,100208.56
2018-09-17T16:12:23.504Z,100206.30
2018-09-17T16:14:54.456Z,100208.02
2018-09-17T16:17:25.497Z,100202.11
2018-09-17T16:19:56.566Z,100213.11
2018-09-17T16:22:27.542Z,100213.20
2018-09-17T16:24:58.505Z,100209.13
2018-09-17T16:27:29.509Z,100209.03
2018-09-17T16:30:00.502Z,100206.29
2018-09-17T16:32:31.521Z,100211.51
2018-09-17T16:35:02.488Z,100205.72
2018-09-17T16:37:33.607Z,100209.50
2018-09-17T16:40:04.535Z,100208.55
2018-09-17T16:42:35.530Z,100206.98
2018-09-17T16:45:07.358Z,100202.66
2018-09-17T16:47:39.181Z,100200.78
2018-09-17T16:50:10.369Z,100203.56
2018-09-17T16:52:41.375Z,100208.75
2018-09-17T16:55:12.458Z,100197.31
2018-09-17T16:57:43.579Z,100197.94
2018-09-17T17:00:14.635Z,100201.11
2018-09-17T17:02:45.629Z,100199.77
2018-09-17T17:05:16.613Z,100201.98
2018-09-17T17:07:47.581Z,100203.56
2018-09-17T17:10:18.595Z,100200.16
2018-09-17T17:12:49.608Z,100198.89
2018-09-17T17:15:20.577Z,100200.01
2018-09-17T17:17:51.761Z,100200.14
2018-09-17T17:20:22.603Z,100197.05
2018-09-17T17:22:53.564Z,100195.39
2018-09-17T17:25:24.505Z,100188.80
2018-09-17T17:27:55.595Z,100190.34
2018-09-17T17:30:26.587Z,100188.06
2018-09-17T17:32:57.614Z,100186.36
2018-09-17T17:35:28.572Z,100193.31
2018-09-17T17:38:00.545Z,100182.81
2018-09-17T17:40:31.609Z,100191.47
2018-09-17T17:43:02.590Z,100191.86
2018-09-17T17:45:33.578Z,100196.67
2018-09-17T17:48:04.572Z,100197.18
2018-09-17T17:51:01.391Z,100209.89
2018-09-17T17:53:32.553Z,100203.03
2018-09-17T17:56:03.519Z,100207.17
2018-09-17T17:58:34.721Z,100205.64
2018-09-17T18:01:05.745Z,100207.50
2018-09-17T18:03:36.606Z,100203.05
2018-09-17T18:06:07.505Z,100206.45
2018-09-17T18:08:38.526Z,100206.63
2018-09-17T18:11:09.525Z,100200.94
2018-09-17T18:13:40.510Z,100206.75
2018-09-17T18:16:11.541Z,100206.77
2018-09-17T18:18:42.499Z,100198.37
2018-09-17T18:21:13.619Z,100203.67
2018-09-17T18:23:44.831Z,100201.89
2018-09-17T18:26:16.281Z,100201.66
2018-09-17T18:28:47.453Z,100206.02
2018-09-17T18:31:18.622Z,100206.53
2018-09-17T18:33:49.514Z,100209.66
2018-09-17T18:36:20.627Z,100203.43
2018-09-17T18:38:52.380Z,100206.53
2018-09-17T18:41:23.361Z,100203.21
2018-09-17T18:43:54.445Z,100200.61
2018-09-17T18:46:25.546Z,100202.05
2018-09-17T18:48:56.523Z,100206.90
2018-09-17T18:51:27.488Z,100207.62
2018-09-17T18:56:43.079Z,100210.06
2018-09-17T18:59:14.292Z,100220.03
2018-09-17T19:01:45.393Z,100222.02
2018-09-17T19:04:23.372Z,100212.88
2018-09-17T19:06:54.505Z,100215.36
2018-09-17T19:09:30.741Z,100216.21
2018-09-17T19:12:01.771Z,100207.33
2018-09-17T19:14:37.728Z,100206.78
2018-09-17T19:17:14.014Z,100210.34
2018-09-17T19:19:45.325Z,100209.92
2018-09-17T19:22:21.589Z,100214.78
2018-09-17T19:24:52.523Z,100219.55
2018-09-17T19:27:27.369Z,100212.89
2018-09-17T19:29:58.603Z,100215.66
2018-09-17T19:32:29.559Z,100217.18
2018-09-17T19:35:00.509Z,100212.11
2018-09-17T19:37:36.761Z,100216.66
2018-09-17T19:40:15.630Z,100214.30
2018-09-17T19:42:47.699Z,100217.36
2018-09-17T19:45:23.797Z,100217.97
2018-09-17T19:47:54.627Z,100218.01
2018-09-17T19:50:30.862Z,100224.20
2018-09-17T19:53:01.700Z,100225.17
2018-09-17T19:55:32.643Z,100225.91
2018-09-17T19:58:08.633Z,100221.10
2018-09-17T20:00:39.798Z,100219.76
2018-09-17T20:03:10.558Z,100219.32
2018-09-17T20:05:46.814Z,100215.09
2018-09-17T20:08:17.727Z,100213.77
2018-09-17T20:10:48.659Z,100206.91
2018-09-17T20:13:19.602Z,100209.97
2018-09-17T20:15:50.598Z,100212.38
2018-09-17T20:18:21.518Z,100208.41
2018-09-17T20:20:52.540Z,100202.16
2018-09-17T20:23:23.526Z,100199.38
2018-09-17T20:25:54.587Z,100202.53
2018-09-17T20:28:26.011Z,100200.53
2018-09-17T20:30:57.659Z,100191.83
2018-09-17T20:33:31.269Z,100194.12
2018-09-17T20:36:02.422Z,100195.81
2018-09-17T20:38:33.533Z,100205.12
2018-09-17T20:41:04.511Z,100203.59
2018-09-17T20:43:35.510Z,100201.98
2018-09-17T20:46:07.291Z,100207.86
2018-09-17T20:48:38.408Z,100191.50
2018-09-17T20:51:09.501Z,100201.69
2018-09-17T20:53:40.566Z,100202.06
2018-09-17T20:56:11.548Z,100203.50
2018-09-17T20:58:42.546Z,100205.98
2018-09-17T21:01:13.580Z,100200.27
2018-09-17T21:03:44.475Z,100200.45
2018-09-17T21:06:15.490Z,100203.64
2018-09-17T21:08:46.493Z,100203.20
2018-09-17T21:11:17.579Z,100203.89
2018-09-17T21:13:48.509Z,100203.42
2018-09-17T21:16:19.510Z,100201.02
2018-09-17T21:18:50.558Z,100203.54
2018-09-17T21:21:21.521Z,100200.27
2018-09-17T21:23:52.498Z,100205.83
2018-09-17T21:26:23.562Z,100201.00
2018-09-17T21:28:54.621Z,100201.12
2018-09-17T21:31:25.569Z,100199.19
2018-09-17T21:33:56.543Z,100197.05
2018-09-17T21:36:27.518Z,100197.11
2018-09-17T21:38:58.498Z,100192.63
2018-09-17T21:41:29.538Z,100189.70
2018-09-17T21:44:00.550Z,100189.28
2018-09-17T21:46:31.544Z,100190.22
2018-09-17T21:49:02.493Z,100191.00
2018-09-17T21:51:33.550Z,100188.70
2018-09-17T21:54:04.504Z,100180.38
2018-09-17T21:56:35.493Z,100181.28
2018-09-17T21:59:06.586Z,100186.63
2018-09-17T22:01:37.534Z,100183.67
2018-09-17T22:04:08.503Z,100186.37
2018-09-17T22:06:39.506Z,100178.00
2018-09-17T22:09:10.563Z,100180.99
2018-09-17T22:11:41.541Z,100178.34
2018-09-17T22:14:12.498Z,100185.02
2018-09-17T22:16:43.579Z,100180.13
2018-09-17T22:19:14.534Z,100180.89
2018-09-17T22:21:48.504Z,100175.00
2018-09-17T22:24:19.513Z,100182.28
2018-09-17T22:26:50.581Z,100180.47
2018-09-17T22:29:21.784Z,100173.05
2018-09-17T22:31:52.653Z,100179.39
2018-09-17T22:34:23.568Z,100171.88
2018-09-17T22:36:54.508Z,100171.49
2018-09-17T22:39:25.519Z,100176.14
2018-09-17T22:41:56.526Z,100173.48
2018-09-17T22:44:27.490Z,100171.16
2018-09-17T22:46:58.510Z,100176.19
2018-09-17T22:49:29.509Z,100168.14
2018-09-17T22:52:00.546Z,100170.20
2018-09-17T22:54:31.530Z,100175.35
2018-09-17T22:57:02.535Z,100178.87
2018-09-17T22:59:33.580Z,100181.05
2018-09-17T23:02:04.640Z,100174.22
2018-09-17T23:04:35.563Z,100178.11
2018-09-17T23:07:06.529Z,100176.11
2018-09-17T23:09:38.931Z,100166.73
2018-09-17T23:12:09.786Z,100164.08
2018-09-17T23:14:40.748Z,100168.67
2018-09-17T23:17:11.586Z,100166.39
2018-09-17T23:22:26.473Z,100166.30
2018-09-17T23:24:57.509Z,100167.46
2018-09-17T23:27:28.479Z,100166.80
2018-09-17T23:29:59.493Z,100157.98
2018-09-17T23:32:30.502Z,100158.83
2018-09-17T23:35:01.485Z,100163.32
2018-09-17T23:37:32.510Z,100164.00
2018-09-17T23:40:03.469Z,100162.83
2018-09-17T23:42:34.445Z,100164.00
2018-09-17T23:45:05.422Z,100166.52
2018-09-17T23:47:36.415Z,100158.38
2018-09-17T23:50:07.428Z,100155.00
2018-09-17T23:52:38.424Z,100154.36
2018-09-17T23:55:09.437Z,100155.58
2018-09-17T23:57:40.641Z,100152.14
